Time;durP1;ratioP1;P1;durP2;ratioP2;P2;SDS_P1;SDS_P2;PMS_P1;PMS_P2;Temp;Humidity;BMP_temperature;BMP_pressure;BME280_temperature;BME280_humidity;BME280_pressure;Samples;Min_cycle;Max_cycle;Signal;HPM_P1;HPM_P2
2023/01/12 00:01:40;;;;;;;6.00;1.40;;;11.90;78.90;;;;;;5007443;28;20502;-82
2023/01/12 00:04:24;;;;;;;4.28;1.63;;;11.80;78.30;;;;;;5013587;28;20060;-81
2023/01/12 00:07:11;;;;;;;5.35;1.48;;;11.90;78.50;;;;;;5007485;28;20597;-80
2023/01/12 00:09:55;;;;;;;9.85;2.20;;;11.90;78.50;;;;;;5014792;28;20036;-79
2023/01/12 00:12:41;;;;;;;8.05;2.38;;;11.90;78.50;;;;;;5008061;28;20580;-80
2023/01/12 00:18:30;;;;;;;9.00;2.40;;;11.90;78.50;;;;;;5013452;28;20057;-80
2023/01/12 00:21:16;;;;;;;4.80;1.40;;;12.00;78.70;;;;;;5016825;28;20053;-81
2023/01/12 00:24:00;;;;;;;8.63;2.42;;;12.00;78.70;;;;;;5010130;28;20264;-83
2023/01/12 00:26:47;;;;;;;5.53;1.60;;;12.00;78.70;;;;;;5026266;28;20045;-83
2023/01/12 00:29:31;;;;;;;4.55;1.55;;;12.00;78.70;;;;;;5004254;28;20048;-83
2023/01/12 00:32:18;;;;;;;7.40;2.10;;;12.00;78.70;;;;;;5014135;28;20124;-83
2023/01/12 00:35:03;;;;;;;8.43;1.63;;;12.00;78.70;;;;;;5010323;28;20037;-82
2023/01/12 00:37:47;;;;;;;7.80;2.47;;;12.00;78.60;;;;;;5015457;28;20069;-82
2023/01/12 00:40:34;;;;;;;9.23;1.98;;;12.10;78.80;;;;;;5002615;28;20069;-82
2023/01/12 00:46:29;;;;;;;6.97;1.63;;;12.10;79.30;;;;;;5007674;28;20045;-82
2023/01/12 00:49:14;;;;;;;6.50;1.20;;;12.10;78.80;;;;;;5013397;28;20133;-82
2023/01/12 00:51:59;;;;;;;6.03;1.40;;;12.10;79.30;;;;;;5024758;28;20146;-82
2023/01/12 00:54:44;;;;;;;4.40;1.42;;;12.10;78.90;;;;;;4994646;28;20177;-82
2023/01/12 00:57:29;;;;;;;6.22;1.42;;;12.20;78.90;;;;;;5009259;28;20041;-82
2023/01/12 01:00:14;;;;;;;4.72;1.10;;;12.20;78.90;;;;;;5008330;28;20061;-83
2023/01/12 01:02:58;;;;;;;6.88;1.70;;;12.20;78.90;;;;;;5012554;28;20084;-84
2023/01/12 01:05:43;;;;;;;2.17;1.05;;;12.20;78.90;;;;;;5013668;28;20505;-82
2023/01/12 01:08:29;;;;;;;4.88;1.45;;;12.20;78.90;;;;;;5009073;28;20053;-82
2023/01/12 01:11:14;;;;;;;4.05;1.00;;;12.20;78.90;;;;;;5015091;28;20180;-81
2023/01/12 01:13:58;;;;;;;2.60;0.90;;;12.20;78.90;;;;;;5008877;28;20053;-81
2023/01/12 01:16:43;;;;;;;6.03;1.73;;;12.20;79.00;;;;;;5006233;28;20204;-81
2023/01/12 01:19:29;;;;;;;4.50;1.65;;;12.30;79.10;;;;;;4997070;28;20053;-83
2023/01/12 01:22:14;;;;;;;4.60;1.00;;;12.20;79.00;;;;;;5012647;28;20119;-82
2023/01/12 01:24:58;;;;;;;2.40;0.77;;;12.30;79.20;;;;;;5011693;28;20389;-83
2023/01/12 01:27:43;;;;;;;3.17;1.10;;;12.20;79.00;;;;;;5014992;28;20139;-82
2023/01/12 01:30:27;;;;;;;2.80;1.58;;;12.30;79.20;;;;;;5005654;28;20173;-83
2023/01/12 01:33:12;;;;;;;5.57;1.23;;;12.20;79.00;;;;;;5016657;28;20107;-82
2023/01/12 01:35:57;;;;;;;5.80;1.35;;;12.30;79.20;;;;;;5010152;28;20045;-82
2023/01/12 01:38:46;;;;;;;2.55;0.75;;;12.20;79.10;;;;;;5012478;28;20045;-81
2023/01/12 01:41:32;;;;;;;6.35;1.20;;;12.30;79.20;;;;;;5009800;28;20047;-82
2023/01/12 01:44:29;;;;;;;4.95;1.02;;;12.20;79.10;;;;;;5012045;28;20506;-82
2023/01/12 01:47:27;;;;;;;3.30;0.75;;;12.30;79.20;;;;;;5010348;28;20056;-81
2023/01/12 01:50:27;;;;;;;3.40;0.93;;;12.30;79.30;;;;;;5005889;28;20052;-82
2023/01/12 01:53:17;;;;;;;3.65;0.80;;;12.30;79.20;;;;;;4991270;28;20056;-82
2023/01/12 01:56:18;;;;;;;5.05;0.93;;;12.30;79.20;;;;;;4999788;28;20060;-82
2023/01/12 01:59:09;;;;;;;4.05;1.27;;;12.30;79.20;;;;;;5011888;28;20040;-83
2023/01/12 02:01:54;;;;;;;4.30;0.88;;;12.30;79.20;;;;;;5004543;28;20045;-83
2023/01/12 02:04:38;;;;;;;3.65;1.00;;;12.30;79.20;;;;;;5008655;28;20041;-83
2023/01/12 02:07:24;;;;;;;2.15;0.80;;;12.30;79.20;;;;;;5016043;28;20049;-83
2023/01/12 02:10:09;;;;;;;4.05;1.02;;;12.30;79.20;;;;;;5010548;28;20045;-82
2023/01/12 02:16:22;;;;;;;4.40;1.10;;;12.30;79.20;;;;;;5009453;28;20129;-82
2023/01/12 02:19:51;;;;;;;3.65;1.05;;;12.30;79.20;;;;;;5010567;28;20052;-83
2023/01/12 02:22:54;;;;;;;4.05;1.10;;;12.30;79.20;;;;;;5010846;28;20205;-83
2023/01/12 02:26:17;;;;;;;5.38;1.20;;;12.30;79.20;;;;;;5013868;28;20065;-82
2023/01/12 02:29:14;;;;;;;2.55;1.00;;;12.30;79.20;;;;;;5013783;28;20175;-82
2023/01/12 02:32:22;;;;;;;6.63;1.10;;;12.30;79.20;;;;;;5015347;28;20064;-83
2023/01/12 02:35:38;;;;;;;3.40;0.82;;;12.30;79.30;;;;;;5016058;28;20220;-82
2023/01/12 02:38:46;;;;;;;2.22;1.38;;;12.30;79.30;;;;;;5011967;28;20210;-82
2023/01/12 02:45:26;;;;;;;3.50;1.25;;;12.30;79.30;;;;;;5006312;28;20892;-82
2023/01/12 02:48:10;;;;;;;3.20;0.98;;;12.40;79.40;;;;;;5007576;28;20519;-82
2023/01/12 02:51:09;;;;;;;4.15;0.80;;;12.40;79.40;;;;;;5014602;28;20033;-83
2023/01/12 02:54:16;;;;;;;2.90;0.70;;;12.40;79.40;;;;;;5005016;28;20440;-82
2023/01/12 02:57:04;;;;;;;6.20;1.77;;;12.40;79.60;;;;;;5021646;28;20033;-82
2023/01/12 02:59:51;;;;;;;3.40;1.02;;;12.40;79.40;;;;;;5009934;28;20096;-82
2023/01/12 03:02:37;;;;;;;3.90;1.02;;;12.40;79.40;;;;;;5006272;28;20049;-83
2023/01/12 03:05:21;;;;;;;5.47;1.02;;;12.40;79.40;;;;;;5006523;28;20056;-83
2023/01/12 03:08:09;;;;;;;6.15;2.08;;;12.40;79.40;;;;;;5009907;28;20083;-83
2023/01/12 03:11:10;;;;;;;2.90;0.70;;;12.40;79.40;;;;;;5010198;28;20060;-83
2023/01/12 03:13:58;;;;;;;2.45;0.50;;;12.40;79.50;;;;;;5007705;28;20056;-82
2023/01/12 03:16:43;;;;;;;4.75;0.70;;;12.40;79.40;;;;;;5013985;28;20036;-81
2023/01/12 03:19:31;;;;;;;5.85;0.95;;;12.40;79.50;;;;;;5001326;28;20087;-82
2023/01/12 03:22:16;;;;;;;3.60;1.10;;;12.40;79.50;;;;;;5014403;28;20049;-81
2023/01/12 03:25:08;;;;;;;4.00;0.82;;;12.40;79.50;;;;;;5011911;28;20084;-81
2023/01/12 03:27:55;;;;;;;5.05;1.35;;;12.40;79.50;;;;;;5010291;28;20086;-82
2023/01/12 03:30:45;;;;;;;3.80;0.82;;;12.40;79.50;;;;;;5009588;28;20065;-82
2023/01/12 03:33:31;;;;;;;5.88;1.35;;;12.40;79.50;;;;;;5006735;28;20052;-81
2023/01/12 03:36:44;;;;;;;5.05;1.23;;;12.40;79.50;;;;;;5004327;28;20910;-82
2023/01/12 03:39:48;;;;;;;7.57;2.08;;;12.40;79.60;;;;;;4994853;28;20116;-82
2023/01/12 03:42:36;;;;;;;5.00;1.20;;;12.40;79.50;;;;;;5009338;28;20037;-80
2023/01/12 03:45:38;;;;;;;5.97;1.88;;;12.40;79.50;;;;;;5004542;28;20041;-80
2023/01/12 03:48:56;;;;;;;3.83;0.88;;;12.40;79.50;;;;;;4995314;28;20089;-81
2023/01/12 03:51:45;;;;;;;5.25;1.00;;;12.40;79.50;;;;;;5010393;28;20119;-81
2023/01/12 03:54:31;;;;;;;5.45;1.00;;;12.40;79.50;;;;;;5009701;28;20057;-81
2023/01/12 03:57:18;;;;;;;3.60;0.90;;;12.40;79.50;;;;;;4999456;28;20498;-82
2023/01/12 04:00:06;;;;;;;3.28;0.68;;;12.40;79.50;;;;;;5005621;28;20105;-83
2023/01/12 04:03:11;;;;;;;5.22;1.23;;;12.40;79.50;;;;;;5002289;28;20140;-82
2023/01/12 04:05:56;;;;;;;10.63;1.15;;;12.40;79.50;;;;;;5007644;28;20091;-83
2023/01/12 04:08:40;;;;;;;5.30;1.10;;;12.40;79.50;;;;;;5003125;28;20042;-83
2023/01/12 04:14:29;;;;;;;6.13;1.83;;;12.40;79.50;;;;;;5015273;28;20116;-83
2023/01/12 04:17:14;;;;;;;3.83;1.00;;;12.40;79.50;;;;;;5001650;28;20116;-83
2023/01/12 04:19:58;;;;;;;4.35;1.75;;;12.40;79.50;;;;;;5004181;28;20625;-82
2023/01/12 04:22:44;;;;;;;5.57;0.93;;;12.40;79.50;;;;;;5008961;28;20052;-81
2023/01/12 04:25:29;;;;;;;5.55;1.20;;;12.40;79.60;;;;;;5010148;28;20658;-82
2023/01/12 04:28:15;;;;;;;3.65;1.17;;;12.40;79.60;;;;;;5014734;28;20048;-81
2023/01/12 04:31:00;;;;;;;4.45;1.15;;;12.40;79.60;;;;;;4997641;28;20454;-83
2023/01/12 04:33:45;;;;;;;3.97;1.20;;;12.40;79.60;;;;;;5012035;28;20095;-83
2023/01/12 04:36:29;;;;;;;5.60;1.40;;;12.40;79.60;;;;;;5022520;28;20041;-82
2023/01/12 04:39:14;;;;;;;3.42;0.80;;;12.40;79.60;;;;;;5003227;28;20049;-83
2023/01/12 04:41:59;;;;;;;3.20;1.05;;;12.50;79.80;;;;;;5000792;28;20504;-82
2023/01/12 04:44:43;;;;;;;2.92;0.88;;;12.40;79.60;;;;;;5003771;28;20112;-82
2023/01/12 04:47:28;;;;;;;3.75;0.90;;;12.40;79.60;;;;;;5015707;28;20040;-82
2023/01/12 04:50:13;;;;;;;5.40;1.08;;;12.40;79.50;;;;;;5012242;28;20049;-82
2023/01/12 04:53:01;;;;;;;3.28;0.82;;;12.50;79.70;;;;;;5014306;28;20053;-81
2023/01/12 04:55:45;;;;;;;4.22;0.95;;;12.50;79.70;;;;;;4998991;28;20057;-80
2023/01/12 04:58:31;;;;;;;7.28;1.85;;;12.50;79.80;;;;;;5017141;28;20575;-82
2023/01/12 05:01:18;;;;;;;4.38;0.90;;;12.50;79.80;;;;;;5010195;28;20069;-83
2023/01/12 05:04:02;;;;;;;3.30;0.68;;;12.40;79.60;;;;;;5022358;28;20060;-83
2023/01/12 05:06:47;;;;;;;6.18;1.45;;;12.50;79.80;;;;;;4997316;28;20084;-81
2023/01/12 05:12:35;;;;;;;3.28;0.63;;;12.40;79.60;;;;;;5014367;28;20125;-81
2023/01/12 05:15:21;;;;;;;5.20;0.90;;;12.50;79.80;;;;;;5011891;28;20048;-82
2023/01/12 05:18:06;;;;;;;4.47;1.38;;;12.50;79.80;;;;;;5002740;28;20089;-83
2023/01/12 05:20:50;;;;;;;4.40;2.05;;;12.50;79.90;;;;;;5007694;28;20061;-82
2023/01/12 05:23:37;;;;;;;7.13;1.13;;;12.50;79.90;;;;;;5006153;28;20045;-83
2023/01/12 05:26:21;;;;;;;4.10;0.93;;;12.50;79.90;;;;;;5011846;28;20159;-81
2023/01/12 05:29:07;;;;;;;6.88;1.23;;;12.50;79.90;;;;;;5000133;28;20096;-82
2023/01/12 05:31:52;;;;;;;6.90;1.20;;;12.50;79.90;;;;;;5013512;28;20073;-81
2023/01/12 05:34:36;;;;;;;4.25;1.30;;;12.50;79.90;;;;;;5010319;28;20117;-81
2023/01/12 05:37:21;;;;;;;6.55;1.63;;;12.50;79.90;;;;;;5011668;28;20400;-81
2023/01/12 05:40:06;;;;;;;4.68;1.15;;;12.50;79.90;;;;;;5007965;28;20036;-80
2023/01/12 05:45:55;;;;;;;6.13;1.05;;;12.60;80.10;;;;;;5005234;28;20118;-83
2023/01/12 05:48:40;;;;;;;5.20;1.55;;;12.50;79.90;;;;;;5002717;28;20053;-81
2023/01/12 05:51:26;;;;;;;4.68;1.25;;;12.50;79.90;;;;;;5010161;28;20057;-82
2023/01/12 05:54:10;;;;;;;5.45;1.20;;;12.60;80.10;;;;;;5006659;28;20116;-82
2023/01/12 05:56:55;;;;;;;5.30;1.10;;;12.50;79.90;;;;;;5008813;28;20409;-83
2023/01/12 05:59:40;;;;;;;3.65;0.93;;;12.60;80.10;;;;;;5009374;28;20089;-84
2023/01/12 06:02:24;;;;;;;4.40;1.02;;;12.60;80.10;;;;;;5004382;28;20041;-83
2023/01/12 06:05:09;;;;;;;4.43;1.40;;;12.60;80.10;;;;;;5000169;28;20059;-82
2023/01/12 06:07:54;;;;;;;3.70;0.80;;;12.60;80.10;;;;;;5009551;28;20052;-81
2023/01/12 06:10:39;;;;;;;4.22;1.65;;;12.60;80.10;;;;;;5019336;28;20036;-81
2023/01/12 06:16:27;;;;;;;5.35;1.20;;;12.60;80.10;;;;;;5008599;28;20091;-81
2023/01/12 06:19:12;;;;;;;9.77;1.50;;;12.60;80.10;;;;;;5019491;28;20057;-82
2023/01/12 06:21:58;;;;;;;6.22;1.55;;;12.60;80.10;;;;;;5010292;28;20075;-81
2023/01/12 06:24:45;;;;;;;6.32;1.42;;;12.60;80.10;;;;;;5012611;28;20461;-81
2023/01/12 06:27:34;;;;;;;5.75;1.65;;;12.60;80.10;;;;;;5012430;28;20056;-80
2023/01/12 06:30:18;;;;;;;11.63;3.80;;;12.70;80.40;;;;;;5032796;28;20336;-81
2023/01/12 06:33:03;;;;;;;4.68;1.35;;;12.70;80.30;;;;;;5028603;28;20229;-81
2023/01/12 06:35:48;;;;;;;7.57;1.38;;;12.70;80.30;;;;;;5020774;28;20064;-80
2023/01/12 06:38:35;;;;;;;7.18;1.58;;;12.70;80.40;;;;;;5024938;28;20086;-93
2023/01/12 06:44:24;;;;;;;7.25;1.52;;;12.70;80.40;;;;;;5028400;28;20041;-93
2023/01/12 06:47:09;;;;;;;4.50;1.40;;;12.70;80.50;;;;;;5012195;28;20048;-89
2023/01/12 06:49:53;;;;;;;4.22;1.55;;;12.80;80.80;;;;;;5002447;28;20040;-88
2023/01/12 06:52:38;;;;;;;5.32;1.58;;;12.90;81.10;;;;;;5019982;28;20082;-85
2023/01/12 06:55:23;;;;;;;5.88;1.52;;;12.90;81.10;;;;;;5013725;28;20652;-78
2023/01/12 06:58:07;;;;;;;3.92;1.02;;;13.00;81.40;;;;;;5010554;28;20064;-78
2023/01/12 07:00:52;;;;;;;8.18;2.05;;;13.10;81.60;;;;;;5009099;28;20178;-78
2023/01/12 07:03:37;;;;;;;4.35;1.27;;;13.10;81.60;;;;;;5004897;28;20164;-81
2023/01/12 07:06:22;;;;;;;9.23;1.42;;;13.10;81.70;;;;;;5004289;28;20440;-87
2023/01/12 07:09:06;;;;;;;6.18;1.70;;;13.20;82.00;;;;;;5011473;28;20175;-78
2023/01/12 07:11:51;;;;;;;5.53;1.30;;;13.30;82.20;;;;;;5016645;28;20739;-79
2023/01/12 07:14:35;;;;;;;4.45;1.27;;;13.30;82.20;;;;;;5014942;28;20110;-80
2023/01/12 07:17:20;;;;;;;4.57;1.70;;;13.40;82.40;;;;;;5017377;28;20108;-90
2023/01/12 07:20:05;;;;;;;6.28;1.58;;;13.40;82.30;;;;;;5016984;28;20076;-92
2023/01/12 07:22:50;;;;;;;6.57;2.70;;;13.50;82.50;;;;;;5016210;28;20044;-93
2023/01/12 07:25:36;;;;;;;3.35;1.10;;;13.50;82.40;;;;;;5013696;28;20429;-88
2023/01/12 07:28:20;;;;;;;8.20;1.38;;;13.60;82.60;;;;;;5005677;28;20087;-88
2023/01/12 07:31:06;;;;;;;3.05;1.10;;;13.60;82.50;;;;;;5005580;28;20508;-79
2023/01/12 07:33:52;;;;;;;7.28;1.25;;;13.70;82.60;;;;;;5003889;28;20512;-78
2023/01/12 07:36:37;;;;;;;3.55;1.60;;;13.70;82.50;;;;;;5004637;28;20103;-85
2023/01/12 07:39:22;;;;;;;3.58;1.05;;;13.70;82.50;;;;;;5006396;28;20641;-87
2023/01/12 07:42:22;;;;;;;5.22;1.08;;;13.80;82.60;;;;;;5005970;28;20536;-86
2023/01/12 07:45:09;;;;;;;2.75;0.93;;;13.80;82.50;;;;;;5018137;28;20095;-86
2023/01/12 07:47:54;;;;;;;8.25;1.23;;;13.80;82.40;;;;;;5002130;28;20033;-86
2023/01/12 07:50:39;;;;;;;4.97;1.13;;;13.80;82.40;;;;;;5007142;28;20504;-86
2023/01/12 07:53:23;;;;;;;4.25;1.23;;;13.80;82.40;;;;;;4998881;28;20081;-86
2023/01/12 07:56:08;;;;;;;5.05;1.42;;;13.90;82.50;;;;;;4999284;28;20080;-91
2023/01/12 07:58:53;;;;;;;3.20;1.08;;;13.90;82.50;;;;;;4995371;28;20622;-89
2023/01/12 08:01:38;;;;;;;4.93;1.05;;;13.90;82.50;;;;;;5005807;28;20057;-85
2023/01/12 08:04:23;;;;;;;4.22;1.23;;;13.90;82.40;;;;;;5004742;28;20052;-85
2023/01/12 08:07:07;;;;;;;2.97;0.93;;;13.90;82.40;;;;;;5006434;28;20048;-87
2023/01/12 08:09:52;;;;;;;4.95;1.35;;;13.90;82.40;;;;;;5004365;28;20311;-83
2023/01/12 08:12:37;;;;;;;4.78;1.35;;;13.90;82.30;;;;;;5006706;28;20816;-88
2023/01/12 08:15:24;;;;;;;2.17;0.88;;;14.00;82.50;;;;;;4995519;28;20389;-84
2023/01/12 08:18:14;;;;;;;7.60;1.20;;;14.00;82.50;;;;;;5004208;28;20044;-86
2023/01/12 08:21:02;;;;;;;4.28;1.05;;;14.00;82.60;;;;;;4998740;28;20106;-86
2023/01/12 08:23:52;;;;;;;7.53;2.22;;;14.10;82.70;;;;;;5005897;28;20064;-85
2023/01/12 08:26:40;;;;;;;6.35;1.13;;;14.30;83.30;;;;;;5004343;28;20041;-85
2023/01/12 08:29:40;;;;;;;2.80;0.85;;;14.40;82.60;;;;;;5004805;28;20041;-84
2023/01/12 08:32:28;;;;;;;4.43;1.38;;;14.40;82.30;;;;;;5005277;28;20064;-83
2023/01/12 08:35:17;;;;;;;2.85;0.90;;;14.40;82.10;;;;;;5000746;28;20111;-84
2023/01/12 08:38:01;;;;;;;1.85;0.73;;;14.30;81.90;;;;;;5007660;28;20096;-83
2023/01/12 08:44:01;;;;;;;3.10;1.10;;;14.20;81.70;;;;;;5014470;28;20172;-83
2023/01/12 08:46:51;;;;;;;2.65;1.33;;;14.10;81.70;;;;;;5008343;28;20505;-81
2023/01/12 08:49:35;;;;;;;5.72;1.25;;;14.10;81.70;;;;;;4998488;28;20084;-82
2023/01/12 08:52:20;;;;;;;1.70;0.77;;;14.00;81.60;;;;;;5000961;28;20122;-83
2023/01/12 08:55:05;;;;;;;4.35;0.80;;;13.90;81.50;;;;;;4997776;28;20100;-80
2023/01/12 08:57:50;;;;;;;4.00;1.25;;;13.90;81.50;;;;;;5006681;28;20113;-81
2023/01/12 09:00:34;;;;;;;3.78;1.05;;;13.90;81.60;;;;;;4999939;28;20091;-88
2023/01/12 09:03:19;;;;;;;3.08;1.10;;;13.80;81.40;;;;;;5015558;28;20402;-85
2023/01/12 09:06:20;;;;;;;4.18;1.00;;;13.80;81.50;;;;;;4987522;28;20040;-84
2023/01/12 09:09:08;;;;;;;2.17;0.70;;;13.80;81.50;;;;;;5001108;28;20393;-90
2023/01/12 09:11:54;;;;;;;2.25;0.70;;;13.70;81.30;;;;;;5022780;28;20457;-93
2023/01/12 09:14:20;;;;;;;2.65;0.60;;;13.70;81.40;;;;;;5008439;28;20061;-89
2023/01/12 09:16:50;;;;;;;2.90;0.82;;;13.70;81.30;;;;;;5004526;28;20033;-90
2023/01/12 09:19:16;;;;;;;2.38;0.60;;;13.70;81.40;;;;;;5007888;28;20038;-84
2023/01/12 09:21:42;;;;;;;1.42;0.63;;;13.70;81.30;;;;;;5008846;28;20026;-83
2023/01/12 09:24:09;;;;;;;2.17;0.80;;;13.70;81.90;;;;;;5004407;28;20127;-82
2023/01/12 09:26:38;;;;;;;2.25;0.90;;;13.70;81.30;;;;;;4994345;28;20118;-84
2023/01/12 09:29:05;;;;;;;2.35;0.60;;;13.60;81.10;;;;;;4997933;28;20133;-85
2023/01/12 09:31:31;;;;;;;2.40;1.00;;;13.70;81.30;;;;;;5001447;28;20026;-84
2023/01/12 09:33:58;;;;;;;3.67;0.70;;;13.70;81.30;;;;;;5000725;28;20038;-84
2023/01/12 09:36:27;;;;;;;3.67;0.75;;;13.70;81.30;;;;;;5003663;28;20521;-83
2023/01/12 09:38:53;;;;;;;2.50;0.90;;;13.60;81.10;;;;;;5001912;28;20320;-89
2023/01/12 09:47:38;;;;;;;3.15;0.68;;;13.60;81.00;;;;;;5009091;28;20044;-88
2023/01/12 09:50:10;;;;;;;2.65;0.82;;;13.60;81.00;;;;;;4989300;28;20042;-91
2023/01/12 09:52:44;;;;;;;1.98;1.27;;;13.60;81.00;;;;;;5017879;28;20049;-86
2023/01/12 09:55:19;;;;;;;1.60;0.50;;;13.60;81.00;;;;;;5014738;28;20046;-86
2023/01/12 09:58:02;;;;;;;1.65;0.80;;;13.60;81.00;;;;;;5007896;28;20136;-85
2023/01/12 10:00:31;;;;;;;2.63;0.70;;;13.60;81.00;;;;;;5002866;28;20437;-85
2023/01/12 10:03:37;;;;;;;8.38;1.50;;;13.60;81.00;;;;;;5000266;28;20022;-87
2023/01/12 10:06:04;;;;;;;1.55;0.73;;;13.50;80.80;;;;;;4987916;28;20051;-87
2023/01/12 10:08:41;;;;;;;2.08;0.60;;;13.60;81.00;;;;;;5006320;28;20057;-86
2023/01/12 10:11:36;;;;;;;2.67;0.65;;;13.60;81.00;;;;;;5003470;28;20109;-87
2023/01/12 10:14:54;;;;;;;4.28;0.90;;;13.60;81.00;;;;;;5021452;28;20044;-86
2023/01/12 10:17:29;;;;;;;4.43;0.70;;;13.60;81.00;;;;;;5007693;28;20080;-88
2023/01/12 10:20:18;;;;;;;4.55;1.20;;;13.60;80.90;;;;;;5011037;28;20176;-87
2023/01/12 10:22:48;;;;;;;1.10;0.50;;;13.60;80.90;;;;;;5004373;28;20075;-87
2023/01/12 10:25:39;;;;;;;2.45;0.60;;;13.60;80.90;;;;;;5011784;28;20091;-88
2023/01/12 10:28:16;;;;;;;2.03;0.95;;;13.60;80.90;;;;;;5009239;28;20037;-88
2023/01/12 10:30:43;;;;;;;2.13;1.02;;;13.60;80.90;;;;;;5000054;28;20080;-87
2023/01/12 10:33:34;;;;;;;3.03;0.70;;;13.60;80.80;;;;;;5005478;28;20381;-88
2023/01/12 10:36:02;;;;;;;1.33;0.43;;;13.60;80.80;;;;;;5010036;28;20042;-88
2023/01/12 10:38:35;;;;;;;4.93;0.65;;;13.60;80.80;;;;;;5000661;28;20033;-89
2023/01/12 10:41:05;;;;;;;2.17;0.85;;;13.60;80.80;;;;;;5008058;28;20056;-85
2023/01/12 10:43:32;;;;;;;1.55;0.70;;;13.70;80.90;;;;;;5006101;28;20041;-83
2023/01/12 10:46:10;;;;;;;3.75;0.88;;;13.70;80.90;;;;;;5008844;28;20533;-84
2023/01/12 10:48:38;;;;;;;2.30;0.60;;;13.70;80.80;;;;;;5007696;28;20033;-85
2023/01/12 10:51:07;;;;;;;2.80;0.90;;;13.70;80.70;;;;;;5007974;28;20042;-84
2023/01/12 10:53:54;;;;;;;2.45;0.90;;;13.70;80.70;;;;;;5007095;28;20359;-91
2023/01/12 10:56:28;;;;;;;3.88;1.65;;;13.70;80.60;;;;;;5014977;28;20038;-84
2023/01/12 10:59:11;;;;;;;2.50;1.17;;;13.70;80.50;;;;;;5016545;28;20534;-84
2023/01/12 11:01:51;;;;;;;4.07;1.15;;;13.80;80.70;;;;;;5022528;28;20188;-84
2023/01/12 11:04:24;;;;;;;4.47;1.25;;;13.80;80.60;;;;;;4999799;28;20026;-84
2023/01/12 11:07:00;;;;;;;4.03;1.10;;;13.80;80.60;;;;;;4998160;28;20096;-84
2023/01/12 11:09:29;;;;;;;2.38;1.15;;;13.90;80.60;;;;;;5008524;28;20112;-86
2023/01/12 11:12:00;;;;;;;2.33;0.98;;;13.90;80.50;;;;;;5003436;28;20453;-84
2023/01/12 11:14:30;;;;;;;2.08;0.95;;;14.00;80.60;;;;;;5009112;28;20067;-89
2023/01/12 11:17:13;;;;;;;5.55;0.88;;;14.00;80.40;;;;;;5000028;28;20131;-87
2023/01/12 11:19:42;;;;;;;4.75;1.38;;;14.00;80.30;;;;;;5013608;28;20049;-84
2023/01/12 11:22:34;;;;;;;5.13;1.23;;;14.00;80.20;;;;;;5008874;28;20459;-85
2023/01/12 11:25:09;;;;;;;4.95;1.30;;;14.00;80.10;;;;;;5009721;28;20150;-84
2023/01/12 11:27:44;;;;;;;5.15;1.15;;;14.00;80.20;;;;;;5009159;28;20125;-84
2023/01/12 11:30:21;;;;;;;3.40;1.40;;;14.00;80.20;;;;;;5016744;28;20167;-82
2023/01/12 11:32:53;;;;;;;5.35;1.40;;;14.00;80.20;;;;;;5001353;28;20133;-82
2023/01/12 11:35:48;;;;;;;7.47;1.85;;;14.00;80.20;;;;;;5015195;28;20041;-93
2023/01/12 11:38:25;;;;;;;4.10;1.13;;;13.90;80.10;;;;;;5011758;28;20034;-89
2023/01/12 11:40:54;;;;;;;5.18;1.27;;;13.90;80.10;;;;;;5014220;28;20038;-85
2023/01/12 11:46:39;;;;;;;3.42;1.10;;;13.90;80.20;;;;;;5009990;28;20264;-82
2023/01/12 11:49:16;;;;;;;4.90;1.92;;;13.90;80.20;;;;;;5008138;28;20425;-82
2023/01/12 11:51:46;;;;;;;2.55;1.02;;;13.90;80.30;;;;;;5010113;28;20050;-90
2023/01/12 11:54:15;;;;;;;3.80;1.48;;;13.90;80.30;;;;;;5002829;28;20046;-90
2023/01/12 11:56:53;;;;;;;4.40;1.17;;;13.90;80.30;;;;;;5012156;28;20092;-91
2023/01/12 11:59:28;;;;;;;3.05;1.25;;;13.90;80.30;;;;;;5009916;28;20029;-92
2023/01/12 12:02:03;;;;;;;4.10;1.52;;;13.90;80.30;;;;;;5000012;28;20029;-94
2023/01/12 12:04:40;;;;;;;2.22;0.90;;;13.90;80.30;;;;;;5018415;28;20114;-89
2023/01/12 12:07:19;;;;;;;4.18;1.23;;;13.90;80.30;;;;;;5003505;28;20350;-78
2023/01/12 12:10:04;;;;;;;4.13;1.17;;;13.90;80.30;;;;;;5008795;28;20021;-78
2023/01/12 12:13:08;;;;;;;4.20;1.20;;;14.00;80.40;;;;;;5000053;28;20045;-79
2023/01/12 12:15:40;;;;;;;;;;;14.00;80.50;;;;;;5006964;28;20112;-78
2023/01/12 12:18:31;;;;;;;3.58;1.30;;;14.10;80.40;;;;;;5017572;28;19917;-91
2023/01/12 12:21:19;;;;;;;8.00;2.63;;;14.20;80.40;;;;;;5007469;28;20152;-88
2023/01/12 12:24:25;;;;;;;3.65;1.23;;;14.30;80.50;;;;;;4995411;28;20057;-89
2023/01/12 12:27:04;;;;;;;5.55;1.25;;;14.40;80.60;;;;;;5018983;28;20025;-87
2023/01/12 12:30:02;;;;;;;5.65;1.08;;;14.40;80.50;;;;;;4999193;28;20237;-79
2023/01/12 12:32:40;;;;;;;5.00;1.60;;;14.50;80.70;;;;;;5005929;28;20076;-87
2023/01/12 12:35:26;;;;;;;4.13;1.60;;;14.60;80.70;;;;;;5012807;28;20191;-79
2023/01/12 12:38:07;;;;;;;5.10;1.25;;;14.70;80.70;;;;;;5013911;28;20044;-78
2023/01/12 12:46:47;;;;;;;5.40;1.35;;;14.90;80.50;;;;;;5015486;28;20065;-79
2023/01/12 12:49:24;;;;;;;4.45;1.25;;;15.00;80.50;;;;;;5009149;28;20045;-80
2023/01/12 12:51:53;;;;;;;4.85;1.40;;;15.10;80.40;;;;;;5020078;28;20037;-79
2023/01/12 12:54:21;;;;;;;6.75;2.05;;;15.10;80.30;;;;;;5004891;28;20075;-80
2023/01/12 12:56:48;;;;;;;5.88;1.45;;;15.20;80.20;;;;;;5022803;28;20097;-79
2023/01/12 12:59:32;;;;;;;9.15;2.85;;;15.30;80.30;;;;;;5014801;28;20046;-79
2023/01/12 13:02:00;;;;;;;6.75;2.40;;;15.30;80.10;;;;;;5008777;28;20678;-79
2023/01/12 13:04:45;;;;;;;8.10;2.53;;;15.30;80.00;;;;;;5014700;28;20061;-78
2023/01/12 13:07:18;;;;;;;7.35;1.50;;;15.30;79.90;;;;;;5017216;28;20109;-79
2023/01/12 13:09:45;;;;;;;9.80;1.80;;;15.40;80.00;;;;;;5013905;28;20089;-83
2023/01/12 13:12:14;;;;;;;9.60;2.70;;;15.40;79.80;;;;;;5012057;28;20057;-82
2023/01/12 13:14:42;;;;;;;10.15;3.00;;;15.40;79.80;;;;;;5009742;28;20175;-83
2023/01/12 13:17:20;;;;;;;7.60;1.65;;;15.40;79.70;;;;;;5004520;28;20038;-81
2023/01/12 13:20:00;;;;;;;13.48;2.67;;;15.40;79.50;;;;;;5013088;28;20063;-81
2023/01/12 13:22:42;;;;;;;9.07;2.65;;;15.50;79.60;;;;;;5014062;28;20124;-80
2023/01/12 13:25:18;;;;;;;9.15;2.15;;;15.60;79.70;;;;;;5002712;28;20420;-84
2023/01/12 13:28:02;;;;;;;6.80;2.20;;;15.70;79.60;;;;;;5005009;28;20031;-78
2023/01/12 13:30:27;;;;;;;10.75;3.03;;;15.70;79.30;;;;;;5010633;28;20060;-79
2023/01/12 13:32:58;;;;;;;8.40;2.03;;;15.70;79.10;;;;;;5009164;28;20088;-82
2023/01/12 13:35:47;;;;;;;9.00;3.08;;;15.80;79.00;;;;;;5014708;28;20125;-89
2023/01/12 13:38:46;;;;;;;11.70;3.22;;;15.90;78.80;;;;;;5016683;28;20105;-89
2023/01/12 13:41:12;;;;;;;10.82;2.40;;;15.90;78.60;;;;;;5011473;28;20552;-89
2023/01/12 13:43:52;;;;;;;8.77;2.88;;;15.90;78.60;;;;;;5008094;28;20025;-85
2023/01/12 13:46:44;;;;;;;9.60;2.65;;;15.90;78.40;;;;;;5015450;28;20041;-87
2023/01/12 13:49:27;;;;;;;10.80;2.88;;;16.00;78.50;;;;;;5007178;28;20063;-86
2023/01/12 13:51:59;;;;;;;12.23;3.65;;;16.00;78.40;;;;;;5009247;28;20044;-86
2023/01/12 13:54:26;;;;;;;17.02;3.10;;;16.10;78.40;;;;;;5007530;28;20057;-94
2023/01/12 13:57:20;;;;;;;10.95;3.13;;;16.10;78.20;;;;;;5007735;28;20045;-87
2023/01/12 14:00:03;;;;;;;12.48;3.17;;;16.20;78.00;;;;;;5006858;28;20042;-87
2023/01/12 14:02:40;;;;;;;15.43;3.33;;;16.20;77.90;;;;;;5009562;28;20490;-87
2023/01/12 14:05:27;;;;;;;8.85;2.65;;;16.30;78.00;;;;;;5003900;28;20026;-85
2023/01/12 14:08:05;;;;;;;9.23;2.78;;;16.40;77.80;;;;;;5006636;28;20038;-86
2023/01/12 14:10:58;;;;;;;9.50;3.13;;;16.50;77.70;;;;;;5001442;28;20217;-86
2023/01/12 14:13:46;;;;;;;18.42;5.05;;;16.60;77.40;;;;;;5004341;28;20092;-86
2023/01/12 14:19:01;;;;;;;10.30;3.30;;;16.70;77.00;;;;;;5003052;28;20502;-86
2023/01/12 14:21:30;;;;;;;18.90;4.40;;;16.80;76.90;;;;;;4997748;28;20077;-87
2023/01/12 14:24:16;;;;;;;14.77;4.30;;;16.90;76.80;;;;;;5008772;28;20030;-89
2023/01/12 14:26:43;;;;;;;16.05;3.97;;;16.90;76.20;;;;;;5014491;28;20631;-88
2023/01/12 14:29:12;;;;;;;10.45;3.03;;;17.00;76.30;;;;;;5009368;28;20141;-88
2023/01/12 14:31:44;;;;;;;14.00;4.72;;;17.00;76.10;;;;;;5008277;28;20477;-86
2023/01/12 14:34:35;;;;;;;13.73;3.38;;;17.00;75.90;;;;;;5010678;28;20509;-79
2023/01/12 14:37:26;;;;;;;11.57;3.67;;;17.00;75.70;;;;;;5004528;28;20022;-79
2023/01/12 14:39:52;;;;;;;13.18;3.35;;;17.10;75.70;;;;;;5012846;28;20091;-78
2023/01/12 14:48:22;;;;;;;19.15;4.07;;;17.10;75.20;;;;;;5006110;28;20057;-88
2023/01/12 14:51:16;;;;;;;12.52;3.67;;;17.10;75.10;;;;;;5010516;28;20060;-88
2023/01/12 14:53:44;;;;;;;15.57;3.92;;;17.00;74.80;;;;;;4995232;28;20057;-93
2023/01/12 14:56:28;;;;;;;18.10;4.82;;;17.00;74.90;;;;;;5007956;28;20029;-94
2023/01/12 14:59:11;;;;;;;17.05;5.95;;;16.90;74.60;;;;;;5011609;28;20046;-93
2023/01/12 15:01:39;;;;;;;18.27;5.80;;;16.80;74.30;;;;;;5017908;28;20052;-90
2023/01/12 15:04:12;;;;;;;24.92;6.05;;;16.70;74.20;;;;;;5009727;28;20151;-93
2023/01/12 15:06:40;;;;;;;17.65;5.22;;;16.60;74.00;;;;;;5009615;28;20337;-79